Tiempo atmosférico en la estación meteorológica de Santander, Cantabria (52 m.)



Fecha
DESCASC
Temp. máxima en grados centígrados (hora)
DESCASC
Temp. mínima en grados centígrados (hora)
DESCASC
Temp. media en grados centígrados
DESCASC
Racha de viento máxima en m/sg (hora)
DESCASC
Velocidad máxima media en intervalos de 10 minutos(hora)
DESCASC
Precipitaciones diarias en mm
DESCASC
Precipitaciones de 00:00 a 06:00 en mm
DESCASC
Precipitaciones de 06:00 a 12:00 en mm
DESCASC
Precipitaciones de 12:00 a 18:00 en mm
DESCASC
Precipitaciones de 18:00 a 24:00 en mm
DESCASC
21-09-2019 26.8 (14:20) 17.7 (00:00) 22.3 21.11 (23:50) 13.89 (23:59) 0.2 0 0.2 0 0
20-09-2019 32 (16:30) 16.2 (00:00) 24.1 11.39 (23:30) 7.78 (22:50) 0 0 0 0 0
19-09-2019 22 (14:40) 16.8 (00:00) 19.4 7.5 (20:20) 5.28 (19:10) 0 0 0 0 0
18-09-2019 22.1 (14:20) 18.8 (00:00) 20.4 7.22 (16:00) 4.72 (17:50) 0 0 0 0 0
17-09-2019 22.5 (14:30) 19 (00:00) 20.8 4.17 (12:40) 3.06 (12:40) 0 0 0 0 0
16-09-2019 22.5 (15:00) 18.5 (00:00) 20.5 5.28 (12:50) 3.61 (11:40) 0 0 0 0 0
15-09-2019 22.2 (17:20) 18.7 (00:00) 20.5 6.39 (18:20) 4.72 (22:40) 0 0 0 0 0
14-09-2019 22.7 (16:00) 17.6 (00:00) 20.2 7.22 (19:00) 5.28 (19:00) 0 0 0 0 0
13-09-2019 21.9 (16:00) 15.6 (00:00) 18.8 5.83 (00:50) 4.17 (00:30) 0 0 0 0 0
12-09-2019 21 (12:20) 14.8 (00:00) 17.9 12.5 (17:10) 10 (18:00) 0 0 0 0 0
11-09-2019 20.5 (15:20) 18.1 (00:00) 19.3 10.83 (01:20) 7.5 (00:40) 0 0 0 0 0
10-09-2019 19 (17:20) 13.4 (06:10) 16.2 26.39 (06:00) 16.39 (03:10) 22.2 4.2 9.4 8.2 0.4
09-09-2019 21.2 (12:10) 13.6 (07:00) 17.4 20.56 (22:20) 13.89 (22:30) 4.6 0 0 0 4.6
08-09-2019 20.8 (17:00) 14.9 (00:00) 17.8 8.89 (18:10) 6.67 (18:20) 0.8 0.2 0.6 0 0
07-09-2019 20.3 (14:10) 14.3 (00:00) 17.3 6.11 (00:20) 5 (16:30) 0 0 0 0 0
06-09-2019 21.8 (15:20) 15.6 (00:00) 18.7 9.72 (03:00) 6.94 (00:50) 0.2 0 0.2 0 0
05-09-2019 20.3 (14:50) 16.2 (00:00) 18.3 13.33 (12:30) 9.44 (12:30) 0.8 0.6 0 0.2 0
04-09-2019 22.5 (14:50) 14.6 (00:00) 18.6 10.83 (23:50) 7.22 (23:59) 0 0 0 0 0
03-09-2019 22.3 (16:10) 15.2 (00:00) 18.7 10.28 (19:00) 8.33 (17:50) 0 0 0 0 0
02-09-2019 21.4 (16:10) 16.2 (00:00) 18.8 6.94 (18:30) 5.28 (18:20) 0 0 0 0 0
01-09-2019 21.3 (13:00) 16.8 (00:00) 19 14.44 (14:00) 11.67 (14:00) 2.8 0 0.6 2 0.2
31-08-2019 22.2 (17:00) 19.7 (00:00) 21 5 (11:20) 3.61 (11:20) 0.4 0 0.2 0.2 0
30-08-2019 24.3 (14:00) 20 (00:00) 22.1 7.5 (15:40) 6.11 (15:40) 0 0 0 0 0
29-08-2019 24.4 (13:30) 20 (00:00) 22.2 11.39 (14:20) 8.33 (14:30) 0 0 0 0 0
28-08-2019 24.3 (14:00) 18.6 (00:00) 21.4 6.11 (15:00) 5 (14:20) 0 0 0 0 0
27-08-2019 23.5 (15:10) 18.7 (00:00) 21.1 5.28 (05:00) 3.61 (05:00) 0 0 0 0 0
26-08-2019 24.5 (14:40) 18.6 (00:00) 21.6 10.28 (18:30) 7.22 (18:40) 2.4 0 0 0.2 2.2
25-08-2019 22.2 (15:30) 19.2 (00:00) 20.7 5.83 (12:40) 4.44 (12:30) 0.4 0 0 0 0.4
24-08-2019 22.9 (13:50) 19.4 (00:00) 21.1 10.28 (10:40) 7.78 (10:40) 0 0 0 0 0
23-08-2019 24.4 (16:20) 16.5 (00:00) 20.4 7.78 (00:30) 6.11 (00:30) 0 0 0 0 0

Gráficas

Temp. máximas Temp. mínimas Temp. medias Precipitaciones Rachas de viento máximas Velocidades máximas media en intervalos de 10 minutos

Datos horarios

Fecha y hora oficial Temperatura (ºC) Velocidad del viento (km/h) Dirección del viento Racha (km/h) Dirección de racha Precipitación (mm) Presión (hPa) Tendencia (hPa) Humedad (%)
2019-09-21 23:00:00 24.3 28 Sur 51 Sur 0 997.6 0.1 56
2019-09-21 22:00:00 24.3 26 Sur 43 Sur 0 997.6 -0.1 56
2019-09-21 21:00:00 24.1 26 Sur 54 Sur 0 997.8 -0.3 56
2019-09-21 20:00:00 24.2 34 Sur 55 Sur 0 997.5 -0.6 56
2019-09-21 19:00:00 24.8 32 Sur 62 Sur 0 997.7 -1.1 54
2019-09-21 18:00:00 25.6 34 Sur 69 Sudoeste 0 998.1 -1.3 52
2019-09-21 17:00:00 26.4 34 Sur 56 Sur 0 998.1 -1.7 48
2019-09-21 16:00:00 25.5 32 Sur 57 Sur 0 998.8 -1.4 51
2019-09-21 15:00:00 25 26 Sudoeste 48 Sur 0 999.4 -1.3 52
2019-09-21 14:00:00 26.4 22 Sur 46 Sur 0 999.8 -1.1 47
2019-09-21 13:00:00 25.6 29 Sur 46 Sur 0 1000.2 -0.8 50
2019-09-21 12:00:00 24.9 25 Sur 40 Sur 0 1000.7 -0.7 53
2019-09-21 11:00:00 23.8 27 Sur 47 Sur 0.2 1000.9 -0.7 56
2019-09-21 10:00:00 22.5 28 Sur 42 Sur 0 1001 -0.8 59
2019-09-21 09:00:00 22 21 Sur 32 Sur 0 1001.4 -0.6 63
2019-09-21 08:00:00 18.8 10 Sudoeste 22 Oeste 0 1001.6 -0.1 91
2019-09-21 07:00:00 18.8 11 Oeste 23 Oeste 0 1001.8 0.1 96
2019-09-21 06:00:00 19.2 20 Oeste 28 Oeste 0 1002 0.1 94
2019-09-21 05:00:00 20.2 9 Oeste 17 Oeste 0 1001.7 -1.2 76
2019-09-21 04:00:00 18.2 6 Este 15 Sudeste 0 1001.7 -1.9 95
2019-09-21 03:00:00 17.8 8 Sudeste 13 Oeste 0 1001.9 -2 95
2019-09-21 02:00:00 18 12 Oeste 28 Oeste 0 1002.9 -0.6 96
2019-09-21 01:00:00 18.2 20 Oeste 38 Oeste 0 1003.6 0.5 96
2019-09-21 00:00:00 18.6 23 Oeste 41 Oeste 0 1003.9 1.4 95
2019-09-20 23:00:00 19.6 23 Oeste 37 Oeste 0 1003.5 1.3 94
2019-09-20 22:00:00 24 14 Oeste 24 Sur 0 1003.1 0.1 49
2019-09-20 21:00:00 25.3 16 Sur 37 Sur 0 1002.5 -0.3 44
2019-09-20 20:00:00 26.8 15 Sur 36 Sur 0 1002.2 -0.6 43
2019-09-20 19:00:00 27.9 17 Sur 37 Sur 0 1003 -0.6 49
2019-09-20 18:00:00 28.9 12 Sudoeste 24 Sur 0 1002.8 -1.3 47
2019-09-20 17:00:00 31.4 16 Sur 30 Sur 0 1002.8 -2 41
2019-09-20 16:00:00 29.8 11 Sudeste 23 Sur 0 1003.6 -1.7 49
2019-09-20 15:00:00 28.3 10 Este 17 Este 0 1004.1 -1.7 58
2019-09-20 14:00:00 29.9 13 Sudeste 22 Sur 0 1004.8 -1.6 49
2019-09-20 13:00:00 28.3 15 Sur 30 Sur 0 1005.3 -1.2 52
2019-09-20 12:00:00 26.3 10 Sudeste 17 Sudeste 0 1005.8 -0.5 57
2019-09-20 11:00:00 23.3 7 Sudeste 12 Sudeste 0 1006.4 0.1 69
2019-09-20 10:00:00 20.8 6 Sudeste 16 Sur 0 1006.5 0.1 78
2019-09-20 09:00:00 17.5 6 Sudeste 14 Sur 0 1006.3 -0.6 90
2019-09-20 08:00:00 16.2 10 Sudeste 12 Sur 0 1006.3 -1.2 92
2019-09-20 07:00:00 16.4 8 Sur 18 Sudeste 0 1006.4 -1.8 91
2019-09-20 06:00:00 16.7 13 Sudeste 19 Sudeste 0 1006.9 -1.8 90
2019-09-20 05:00:00 16.9 12 Sudeste 17 Este 0 1007.5 -1.8 91
2019-09-20 04:00:00 16.9 12 Sudeste 17 Sudeste 0 1008.2 -1.7 90
2019-09-20 03:00:00 16.6 13 Sudeste 17 Sudeste 0 1008.7 -1.8 91
2019-09-20 02:00:00 16.7 10 Sudeste 11 Sudeste 0 1009.3 -1.7 90
2019-09-20 01:00:00 16.8 7 Sur 12 Sudeste 0 1009.9 -1 88
2019-09-20 00:00:00 16.8 8 Sudeste 17 Sudeste 0 1010.5 -0.2 87
2019-09-19 23:00:00 17.6 10 Sudeste 19 Este 0 1011 0.6 85
2019-09-19 22:00:00 17.9 12 Este 21 Este 0 1010.9 0.4 83
2019-09-19 21:00:00 18.3 14 Este 27 Este 0 1010.7 0.1 80
2019-09-19 20:00:00 19 18 Este 24 Este 0 1010.4 -0.4 76
2019-09-19 19:00:00 19.8 19 Este 24 Este 0 1010.5 -0.7 73
2019-09-19 18:00:00 20.5 18 Nordeste 27 Nordeste 0 1010.6 -1 70
2019-09-19 17:00:00 21.1 18 Nordeste 25 Nordeste 0 1010.8 -1.3 69
2019-09-19 16:00:00 21.5 17 Nordeste 24 Nordeste 0 1011.2 -1.3 69
2019-09-19 15:00:00 21.7 17 Nordeste 21 Nordeste 0 1011.6 -1.1 71
2019-09-19 14:00:00 20.9 12 Norte 14 Norte 0 1012.1 -0.6 81
2019-09-19 13:00:00 20.6 8 Norte 12 Norte 0 1012.5 -0.1 85
2019-09-19 12:00:00 20.4 7 Noroeste 9 Noroeste 0 1012.7 0.4 83
2019-09-19 11:00:00 21 6 Oeste 14 Sudoeste 0 1012.7 0.9 79
2019-09-19 10:00:00 19.3 9 Sudoeste 14 Sur 0 1012.6 0.9 84
2019-09-19 09:00:00 18.1 10 Sur 14 Sudoeste 0 1012.3 0.6 90
2019-09-19 08:00:00 17.5 10 Sudoeste 18 Sudoeste 0 1011.8 0 92
2019-09-19 07:00:00 17.8 9 Sudoeste 17 Sudoeste 0 1011.7 -0.5 92
2019-09-19 06:00:00 17.8 10 Sudoeste 14 Sudoeste 0 1011.7 -0.7 93
2019-09-19 05:00:00 17.9 9 Sudoeste 14 Sudoeste 0 1011.8 -0.9 92
2019-09-19 04:00:00 17.7 9 Sudoeste 14 Sudoeste 0 1012.2 -0.7 93
2019-09-19 03:00:00 18 9 Sudoeste 14 Oeste 0 1012.4 -0.7 90
2019-09-19 02:00:00 18.3 10 Oeste 14 Oeste 0 1012.7 -0.2 88
2019-09-19 01:00:00 18.7 8 Oeste 15 Oeste 0 1012.9 0.2 85
2019-09-19 00:00:00 19.1 5 Noroeste 12 Noroeste 0 1013.1 0.9 86
2019-09-18 23:00:00 19 7 Norte 12 Norte 0 1012.9 1 87
2019-09-18 22:00:00 19 7 Norte 10 Norte 0 1012.7 1.1 86
2019-09-18 21:00:00 18.8 8 Norte 12 Nordeste 0 1012.2 0.9 88
2019-09-18 20:00:00 19.5 10 Nordeste 14 Nordeste 0 1011.9 0.5 85
2019-09-18 19:00:00 20.3 11 Nordeste 19 Norte 0 1011.6 0 82
2019-09-18 18:00:00 20.7 14 Nordeste 19 Nordeste 0 1011.3 -0.1 82
2019-09-18 17:00:00 21.4 14 Nordeste 19 Nordeste 0 1011.4 0.1 82
2019-09-18 16:00:00 21.8 15 Nordeste 26 Norte 0 1011.6 0.2 83
2019-09-18 15:00:00 21.7 15 Norte 19 Norte 0 1011.4 0 86
2019-09-18 14:00:00 21.8 10 Noroeste 21 Oeste 0 1011.3 0.2 90
2019-09-18 13:00:00 21.2 13 Oeste 22 Oeste 0 1011.4 0.9 94
2019-09-18 12:00:00 20.9 13 Oeste 18 Oeste 0 1011.4 1.5 94
2019-09-18 11:00:00 20.5 10 Oeste 17 Oeste 0 1011.1 1.8 95
2019-09-18 10:00:00 20 9 Sudoeste 16 Sudoeste 0 1010.5 1.2 96
2019-09-18 09:00:00 19.6 8 Sudoeste 13 Sudoeste 0 1009.9 0.7 98
2019-09-18 08:00:00 19.6 7 Sudoeste 12 Sudoeste 0 1009.3 0 98
2019-09-18 07:00:00 19.5 8 Oeste 13 Oeste 0 1009.3 -0.5 98
2019-09-18 06:00:00 19.4 9 Oeste 14 Oeste 0 1009.2 -0.7 98
2019-09-18 05:00:00 19.5 10 Oeste 16 Sudoeste 0 1009.3 -0.6 96
2019-09-18 04:00:00 19.5 10 Sudoeste 20 Sudoeste 0 1009.8 -1 97
2019-09-18 03:00:00 19.5 11 Sudoeste 16 Sudoeste 0 1009.9 -1.1 98
2019-09-18 02:00:00 19.7 11 Oeste 16 Oeste 0 1009.9 -0.7 97
2019-09-18 01:00:00 20.2 9 Oeste 17 Oeste 0 1010.8 0.1 97
2019-09-18 00:00:00 20.3 9 Oeste 14 Oeste 0 1011 1.3 97
2019-09-17 23:00:00 20.1 10 Oeste 14 Oeste 0 1010.6 1.1 97
2019-09-17 22:00:00 20.5 8 Oeste 13 Oeste 0 1010.7 1.3 96
2019-09-17 21:00:00 20.4 8 Oeste 10 Oeste 0 1009.7 0.1 96
2019-09-15 18:00:00 21 10 Este 18 Este 0 1012.7 -1.6 91
2019-09-15 17:00:00 21.5 10 Nordeste 13 Nordeste 0 1013.6 -0.8 90
2019-09-15 16:00:00 21.2 6 Norte 10 Norte 0 1014.1 -1.1 90
2019-09-15 15:00:00 21.7 6 Norte 10 Noroeste 0 1014.3 -1.1 89
2019-09-15 14:00:00 21 7 Norte 13 Noroeste 0 1014.4 -1.3 89
2019-09-15 13:00:00 20.5 8 Noroeste 15 Oeste 0 1015.2 -0.2 91
2019-09-15 12:00:00 20.2 11 Oeste 15 Oeste 0 1015.4 0.4 93
2019-09-15 11:00:00 19.8 6 Oeste 10 Sur 0 1015.7 0.9 97
2019-09-15 10:00:00 19.1 7 Sur 10 Sur 0 1015.4 0.8 99
2019-09-15 09:00:00 19 5 Sudoeste 9 Oeste 0 1015 0.3 99
2019-09-15 08:00:00 18.7 8 Oeste 13 Oeste 0 1014.8 0.1 99
2019-09-15 07:00:00 18.9 8 Oeste 10 Oeste 0 1014.6 -0.5 98
2019-09-15 06:00:00 18.7 4 Oeste 6 Norte 0 1014.7 -0.9 96
2019-09-15 05:00:00 19.1 0 Calma 9 Sur 0 1014.7 -1.3 93
2019-09-15 04:00:00 19.2 6 Sur 10 Sur 0 1015.1 -1.2 92
2019-09-15 03:00:00 19.3 5 Sur 10 Sur 0 1015.6 -0.8 92
2019-09-15 02:00:00 19.4 8 Sudeste 10 Sudeste 0 1016 -0.4 95
2019-09-15 01:00:00 19.6 6 Este 9 Este 0 1016.3 0 96
2019-09-15 00:00:00 19.7 5 Este 13 Nordeste 0 1016.4 0 95
2019-09-14 23:00:00 19.5 0 Calma 14 Sudeste 0 1016.4 0.5 88
2019-09-14 22:00:00 19.8 10 Este 16 Este 0 1016.3 0.4 90
2019-09-14 21:00:00 20.2 11 Este 17 Este 0 1016.4 0.5 94
2019-09-14 20:00:00 20.7 12 Este 25 Este 0 1015.9 -0.2 93
2019-09-14 19:00:00 21.3 19 Este 26 Este 0 1015.9 -0.7 90
2019-09-14 18:00:00 22.3 15 Nordeste 19 Nordeste 0 1015.9 -1.2 87
2019-09-14 17:00:00 22.3 10 Nordeste 13 Nordeste 0 1016.1 -1.3 86
2019-09-14 16:00:00 22.7 8 Nordeste 13 Nordeste 0 1016.6 -1.3 82
2019-09-14 15:00:00 22.1 8 Norte 14 Norte 0 1017.1 -1.2 81
2019-09-14 14:00:00 21.8 8 Norte 10 Norte 0 1017.4 -1.3 84
2019-09-14 13:00:00 21.1 5 Nordeste 9 Nordeste 0 1017.9 -0.6 86
2019-09-14 12:00:00 20.8 7 Nordeste 9 Nordeste 0 1018.3 0.2 85
2019-09-14 11:00:00 21 4 Sudeste 8 Nordeste 0 1018.7 0.5 87
2019-09-14 10:00:00 19.8 5 Norte 13 Sur 0 1018.5 0.7 91
2019-09-14 09:00:00 18.9 9 Sur 12 Sur 0 1018.1 0.2 95
2019-09-14 08:00:00 17.9 6 Sur 9 Sur 0 1018.2 0 96
2019-09-14 07:00:00 17.9 3 Sur 8 Sur 0 1017.8 -0.7 96
2019-09-14 06:00:00 17.7 4 Sur 7 Oeste 0 1017.9 -1.3 96
2019-09-14 05:00:00 18.1 6 Sudoeste 7 Sudoeste 0 1018.2 -1.5 97
2019-09-14 04:00:00 17.9 3 Sudoeste 10 Sur 0 1018.5 -1.7 97
2019-09-14 03:00:00 18.1 9 Sur 10 Sudeste 0 1019.2 -1.1 96
2019-09-14 02:00:00 18.4 8 Sur 12 Sur 0 1019.7 -0.8 96
2019-09-14 01:00:00 18.2 10 Sur 13 Sur 0 1020.2 -0.5 96
2019-09-14 00:00:00 18.4 8 Este 12 Sudeste 0 1020.3 0 96
2019-09-13 23:00:00 18.5 9 Sudeste 11 Sudeste 0 1020.5 0.3 94
2019-09-13 22:00:00 19 9 Sudeste 13 Este 0 1020.7 -- 93
2019-09-13 21:00:00 19.3 7 Este 13 Este 0 1020.3 -0.2 93
2019-09-13 20:00:00 20.2 8 Este 16 Nordeste 0 1020.2 -0.6 91
2019-09-13 19:00:00 20.9 12 Nordeste 17 Nordeste 0 -- -- 87
2019-09-13 18:00:00 21.4 13 Nordeste 18 Nordeste 0 1020.5 -0.9 86
2019-09-13 17:00:00 21.9 12 Nordeste 14 Nordeste 0 1020.8 -1 83
2019-09-13 16:00:00 21.6 5 Norte 9 Noroeste 0 1021.3 -1.5 82
2019-09-13 15:00:00 20.6 6 Noroeste 15 Noroeste 0 1021.4 -1.3 86
2019-09-13 14:00:00 20 12 Noroeste 14 Noroeste 0 1021.8 -0.8 83
2019-09-13 13:00:00 20.3 6 Noroeste 12 Noroeste 0 1022.8 0 81
2019-09-13 12:00:00 19.6 5 Noroeste 10 Noroeste 0 1022.7 0.1 80
2019-09-13 11:00:00 19.2 7 Oeste 10 Noroeste 0 1022.6 -0.2 81
2019-09-13 10:00:00 18.2 3 Norte 6 Sudoeste 0 1022.8 0.1 83
2019-09-13 09:00:00 16.9 5 Sudoeste 9 Sudeste 0 1022.6 0.1 84
2019-09-13 08:00:00 15.9 8 Sudeste 14 Sur 0 1022.8 -0.2 86
2019-09-13 07:00:00 15.9 13 Sur 15 Sur 0 1022.7 -0.3 89
2019-09-13 06:00:00 15.9 8 Sudeste 17 Sudeste 0 1022.5 -0.5 90
2019-09-13 05:00:00 16.1 10 Sudeste 16 Sur 0 1023 -0.3 88
2019-09-13 04:00:00 16.1 10 Este 17 Este 0 1023 -0.4 92
2019-09-13 03:00:00 16.7 13 Este 17 Este 0 1023 -0.7 90
2019-09-13 02:00:00 17 8 Este 19 Este 0 1023.3 -0.2 92
2019-09-13 01:00:00 17.2 15 Este 21 Sudeste 0 1023.4 -0.1 90
2019-09-13 00:00:00 17 13 Sudeste 18 Sudeste 0 1023.7 0.4 91
2019-09-12 23:00:00 17.5 12 Sudeste 24 Este 0 1023.5 0.4 88
2019-09-12 22:00:00 17.8 14 Este 24 Este 0 1023.5 0.4 86
2019-09-12 21:00:00 18.1 12 Este 31 Este 0 1023.3 0.6 84
2019-09-12 20:00:00 18.9 25 Este 39 Este 0 1023.1 0.4 80
2019-09-12 19:00:00 19.2 30 Este 41 Este 0 1023.1 -0.2 79
2019-09-12 18:00:00 19.6 36 Este 45 Este 0 1022.7 -1.1 77
2019-09-12 17:00:00 20 31 Este 45 Este 0 1022.7 -1.4 77
2019-09-12 16:00:00 20.3 30 Este 44 Este 0 1023.3 -1.2 77
2019-09-12 15:00:00 20.4 31 Este 44 Este 0 1023.8 -0.8 78
2019-09-12 14:00:00 20.6 28 Este 41 Este 0 1024.1 -0.3 75
2019-09-12 13:00:00 20.4 32 Este 42 Este 0 1024.5 0.6 74
2019-09-12 12:00:00 20.8 25 Este 34 Este 0 1024.6 0.8 71
2019-09-12 11:00:00 20.5 18 Este 27 Este 0 1024.4 0.9 71
2019-09-12 10:00:00 18.6 14 Sudeste 22 Sudeste 0 1023.9 0.5 80
2019-09-12 09:00:00 16.8 14 Sudeste 19 Sudeste 0 1023.8 0.7 85
2019-09-12 08:00:00 15.1 13 Sudeste 16 Sudeste 0 1023.5 0.4 91
2019-09-12 07:00:00 14.9 12 Sur 16 Sur 0 1023.4 0.1 92
2019-09-12 06:00:00 15.1 13 Sudeste 14 Sudeste 0 1023.1 -0.5 93
2019-09-12 05:00:00 16.1 3 Sudeste 10 Sur 0 1023.1 -0.7 89
2019-09-12 04:00:00 16.1 10 Sur 13 Sur 0 1023.3 -0.5 90
2019-09-12 03:00:00 16.6 8 Sur 10 Sur 0 1023.6 -0.3 89
2019-09-12 02:00:00 17.1 7 Sur 9 Sur 0 1023.8 0.1 87
2019-09-12 01:00:00 17.4 7 Sur 13 Sur 0 1023.8 0.4 87
2019-09-12 00:00:00 18.2 9 Sudeste 19 Nordeste 0 1023.9 1.1 85
2019-09-11 23:00:00 18.9 10 Norte 19 Norte 0 1023.7 1.3 84
2019-09-11 22:00:00 18.7 13 Norte 19 Norte 0 1023.4 1.1 85
2019-09-11 21:00:00 18.5 9 Norte 16 Nordeste 0 1022.8 0.5 80
2019-09-11 20:00:00 18.9 14 Norte 21 Norte 0 1022.4 0 80
2019-09-11 19:00:00 19.3 15 Norte 19 Norte 0 1022.3 0.1 76
2019-09-11 18:00:00 20.2 10 Norte 17 Norte 0 1022.3 0.2 70
2019-09-11 17:00:00 19.9 14 Norte 20 Norte 0 1022.4 0.1 72
2019-09-11 16:00:00 20.2 14 Norte 20 Norte 0 1022.2 0 71
2019-09-11 15:00:00 19.9 14 Norte 22 Norte 0 1022.1 0.1 73
2019-09-11 14:00:00 19.5 15 Norte 23 Norte 0 1022.3 0.6 74
2019-09-11 13:00:00 19.6 14 Norte 23 Norte 0 1022.2 0.8 74
2019-09-11 12:00:00 19.6 16 Norte 25 Norte 0 1022 1.4 74
2019-09-11 11:00:00 19.4 17 Norte 23 Norte 0 1021.7 1.9 71
2019-09-11 10:00:00 18.6 14 Norte 25 Norte 0 1021.4 2.3 75
2019-09-11 09:00:00 18.3 17 Norte 27 Norte 0 1020.6 1.9 77
2019-09-11 08:00:00 18.2 19 Norte 32 Norte 0 1019.8 1.3 76
2019-09-11 07:00:00 18.3 22 Norte 32 Norte 0 1019.1 0.7 77
2019-09-11 06:00:00 18.2 22 Norte 34 Norte 0 1018.7 0.3 76
2019-09-11 05:00:00 18.4 21 Norte 33 Norte 0 1018.5 0.4 77
2019-09-11 04:00:00 18.3 23 Norte 33 Norte 0 1018.4 0.6 75
2019-09-11 03:00:00 18.4 22 Norte 38 Norte 0 1018.4 0.7 77
2019-09-11 02:00:00 18.2 24 Norte 39 Norte 0 1018.1 0.4 71
2019-09-11 01:00:00 18.4 24 Norte 36 Norte 0 1017.8 0.8 72
2019-09-11 00:00:00 18.3 23 Norte 38 Norte 0 1017.7 1.8 72
2019-09-10 23:00:00 18.4 29 Norte 41 Norte 0 1017.7 2.5 70
2019-09-10 22:00:00 18.3 29 Norte 43 Norte 0 1017 2.6 78
2019-09-10 21:00:00 18.1 31 Norte 48 Norte 0.2 1015.9 2.3 75
2019-09-10 20:00:00 17.5 33 Norte 47 Norte 0.2 1015.2 2.2 83
2019-09-10 19:00:00 18.7 36 Norte 50 Norte 0 1014.4 1.8 72
2019-09-10 18:00:00 18.5 36 Norte 53 Norte 0 1013.6 1.5 71
2019-09-10 17:00:00 18.8 39 Norte 58 Norte 0 1013 1.2 70
2019-09-10 16:00:00 18.3 39 Norte 58 Norte 0.2 1012.6 0.8 76
2019-09-10 15:00:00 17.3 42 Norte 64 Norte 0 1012.1 1.4 75
2019-09-10 14:00:00 16 41 Norte 72 Norte 6 1011.8 1.4 95
2019-09-10 13:00:00 14.7 37 Nordeste 77 Norte 2 1011.8 1.7 96
2019-09-10 12:00:00 14.7 53 Norte 87 Norte 2.8 1010.7 1.4 95
2019-09-10 11:00:00 17 28 Noroeste 54 Noroeste 0 1010.4 0.9 82
2019-09-10 10:00:00 15.2 31 Noroeste 67 Noroeste 3.2 1010.1 1.3 90
2019-09-10 09:00:00 16.2 42 Noroeste 77 Noroeste 0.4 1009.3 0.7 75
2019-09-10 08:00:00 14.7 32 Noroeste 81 Norte 1.4 1009.5 -0.2 86
2019-09-10 07:00:00 16.1 45 Noroeste 89 Norte 1.6 1008.8 -1 75
2019-09-10 06:00:00 15.7 53 Noroeste 95 Noroeste 0.4 1008.6 -0.7 85
2019-09-10 05:00:00 15.2 26 Oeste 54 Noroeste 0 1009.7 -0.7 82
2019-09-10 04:00:00 15.9 35 Noroeste 81 Noroeste 0 1009.8 -0.3 72
2019-09-10 03:00:00 15.2 52 Noroeste 71 Noroeste 3.4 1009.3 -0.8 81
2019-09-10 02:00:00 16.1 27 Noroeste 72 Norte 0 1010.4 0.8 67
2019-09-10 01:00:00 17.6 36 Noroeste 68 Noroeste 0.4 1010.1 1.5 58
2019-09-10 00:00:00 17.4 29 Noroeste 58 Noroeste 0.6 1010.1 1.6 71
2019-09-09 23:00:00 15.4 40 Noroeste 74 Norte 4 1009.6 1 94
2019-09-09 22:00:00 18.1 38 Oeste 57 Oeste 0 1008.6 0 79
2019-09-09 21:00:00 18.3 31 Oeste 46 Oeste 0 1008.5 -0.4 76
2019-09-09 20:00:00 18.6 27 Oeste 40 Oeste 0 1008.6 -0.8 71
2019-09-09 19:00:00 19 22 Oeste 33 Oeste 0 1008.6 -1.5 73
2019-09-09 18:00:00 19.7 23 Oeste 34 Oeste 0 1008.9 -1.6 70
2019-09-09 17:00:00 20.1 18 Oeste 25 Oeste 0 1009.4 -1 62
2019-09-09 16:00:00 20.3 13 Oeste 21 Noroeste 0 1010.1 -0.6 60
2019-09-09 15:00:00 20 9 Norte 11 Noroeste 0 1010.5 -0.4 61
2019-09-09 14:00:00 19.8 8 Nordeste 12 Norte 0 1010.4 -0.9 61
2019-09-09 13:00:00 19.8 9 Nordeste 14 Nordeste 0 1010.7 -0.6 61
2019-09-09 12:00:00 21.1 6 Este 14 Este 0 1010.9 -0.4 57
2019-09-09 11:00:00 19.4 4 Sudeste 8 Sur 0 1011.3 0.1 65
2019-09-09 10:00:00 17 8 Sur 17 Sudoeste 0 1011.3 -0.2 73
2019-09-09 09:00:00 15.2 13 Sudoeste 19 Sur 0 1011.3 0.1 80
2019-09-09 08:00:00 13.9 14 Sur 18 Sur 0 1011.2 -0.3 86
2019-09-09 07:00:00 13.6 3 Sudeste 13 Sur 0 1011.5 -0.6 86
2019-09-09 06:00:00 14.2 11 Sur 12 Sur 0 1011.2 -2 84
2019-09-09 05:00:00 14.1 12 Sur 15 Sur 0 1011.5 -2.2 84
2019-09-09 04:00:00 14.5 14 Sur 17 Sur 0 1012.1 -1.9 84
2019-09-09 03:00:00 14.5 12 Sur 17 Sudeste 0 1013.2 -1.2 83
2019-09-09 02:00:00 15 13 Sudeste 18 Sur 0 1013.7 -1 80
2019-09-09 01:00:00 15 12 Sudeste 16 Sudeste 0 1014 -0.7 80
2019-09-09 00:00:00 15.3 12 Sudeste 17 Sudeste 0 1014.4 0.3 80
2019-09-08 23:00:00 16.5 12 Sudeste 17 Este 0 1014.7 0.9 77
2019-09-08 22:00:00 17.1 11 Este 21 Este 0 1014.7 0.7 76
2019-09-08 21:00:00 17.8 17 Este 23 Este 0 1014.1 0 74
2019-09-08 20:00:00 18.6 17 Este 27 Este 0 1013.8 -0.6 71
2019-09-08 19:00:00 19.6 20 Este 32 Nordeste 0 1014 -0.7 63
2019-09-08 18:00:00 20.5 21 Nordeste 28 Nordeste 0 1014.1 -1.1 59
2019-09-08 17:00:00 20.8 14 Nordeste 22 Nordeste 0 1014.4 -1 64
2019-09-08 16:00:00 20.5 16 Nordeste 22 Nordeste 0 1014.7 -0.9 67
2019-09-08 15:00:00 20.4 13 Nordeste 17 Nordeste 0 1015.2 -0.8 70
2019-09-08 14:00:00 19.8 8 Norte 14 Norte 0 1015.4 -0.4 76
2019-09-08 13:00:00 19.5 8 Norte 11 Norte 0 1015.6 0.1 79
2019-09-08 12:00:00 19.3 5 Norte 9 Noroeste 0 1016 0.6 81
2019-09-08 11:00:00 19.1 6 Oeste 15 Sudoeste 0 1015.8 0.4 79
2019-09-08 10:00:00 17.3 8 Sudoeste 19 Sudoeste 0 1015.5 0.4 85
2019-09-08 09:00:00 15.8 10 Sudoeste 19 Sudoeste 0 1015.4 0.2 91
2019-09-08 08:00:00 15 11 Sudoeste 17 Sudoeste 0 1015.4 0.3 95
2019-09-08 07:00:00 14.9 9 Sudoeste 16 Sudoeste 0.6 1015.1 -0.6 97
2019-09-08 06:00:00 15.6 5 Sudoeste 18 Sur 0 1015.2 -0.8 90
2019-09-08 05:00:00 15.4 14 Sudoeste 19 Sur 0 1015.1 -1.1 90
2019-09-08 04:00:00 15.6 6 Sudoeste 16 Oeste 0.2 1015.7 -0.6 90
2019-09-08 03:00:00 16.4 6 Sudoeste 21 Sudoeste 0 1016 -0.6 83
2019-09-08 02:00:00 16.9 9 Sudoeste 15 Sudoeste 0 1016.2 -0.7 77
2019-09-08 01:00:00 17 12 Sudoeste 17 Sudoeste 0 1016.3 -0.6 76
2019-09-08 00:00:00 17.6 8 Sudoeste 17 Sudoeste 0 1016.6 -0.1 73
2019-09-07 23:00:00 17.3 8 Sudoeste 13 Sudoeste 0 1016.9 0.2 73
2019-09-07 22:00:00 17.5 7 Sudoeste 10 Oeste 0 1016.9 0.1 73
2019-09-07 21:00:00 18 5 Oeste 9 Noroeste 0 1016.7 -0.1 70
2019-09-07 20:00:00 19.1 5 Noroeste 13 Noroeste 0 1016.7 -0.4 67
2019-09-07 19:00:00 19.4 10 Noroeste 15 Norte 0 1016.8 -0.7 65
2019-09-07 18:00:00 19.6 11 Norte 20 Norte 0 1016.8 -1 69
2019-09-07 17:00:00 19.4 15 Noroeste 22 Noroeste 0 1017.1 -1.2 70
2019-09-07 16:00:00 19.7 12 Noroeste 20 Noroeste 0 1017.5 -0.9 69
2019-09-07 15:00:00 19.5 13 Noroeste 19 Noroeste 0 1017.8 -0.8 66
2019-09-07 14:00:00 20.2 11 Noroeste 22 Noroeste 0 1018.3 -0.5 62
2019-09-07 13:00:00 19.6 15 Oeste 21 Oeste 0 1018.4 -0.5 62
2019-09-07 12:00:00 18.7 12 Oeste 19 Noroeste 0 1018.6 -0.3 65
2019-09-07 11:00:00 18.6 10 Sudoeste 17 Sudoeste 0 1018.8 0 63
2019-09-07 10:00:00 17 11 Sudoeste 19 Sur 0 1018.9 0.2 69
2019-09-07 09:00:00 14.7 13 Sudoeste 21 Sudoeste 0 1018.9 0.2 79
2019-09-07 08:00:00 14.3 15 Sur 19 Sur 0 1018.8 -0.1 81
2019-09-07 07:00:00 14.3 13 Sudoeste 18 Sudoeste 0 1018.7 -0.6 81
2019-09-07 06:00:00 14.5 13 Sudoeste 16 Sur 0 1018.7 -1.1 81
2019-09-07 05:00:00 14.6 11 Sur 13 Sur 0 1018.9 -1.3 83
2019-09-07 04:00:00 15 9 Sur 10 Sur 0 1019.3 -1 81
2019-09-07 03:00:00 15.6 4 Sur 12 Nordeste 0 1019.8 -0.5 79
2019-09-07 02:00:00 17 13 Nordeste 19 Nordeste 0 1020.2 -0.2 66
2019-09-07 01:00:00 17.2 18 Norte 22 Nordeste 0 1020.3 0 69
2019-09-07 00:00:00 17.5 17 Nordeste 24 Nordeste 0 1020.3 0.6 70
2019-09-06 23:00:00 17.5 13 Nordeste 19 Nordeste 0 1020.4 1.1 72
2019-09-06 22:00:00 17.6 12 Nordeste 20 Nordeste 0 1020.3 0.9 71
2019-09-06 21:00:00 17.8 15 Nordeste 20 Nordeste 0 1019.7 0.4 69
2019-09-06 20:00:00 18.4 15 Nordeste 21 Nordeste 0 1019.3 0 69
2019-09-06 19:00:00 19.2 15 Nordeste 21 Nordeste 0 1019.4 -0.2 61
2019-09-06 18:00:00 19.9 18 Nordeste 22 Nordeste 0 1019.3 -0.4 59
2019-09-06 17:00:00 20.7 16 Nordeste 24 Nordeste 0 1019.3 -0.7 53
2019-09-06 16:00:00 21.1 18 Nordeste 24 Nordeste 0 1019.6 -0.3 56
2019-09-06 15:00:00 21.3 14 Nordeste 24 Nordeste 0 1019.7 -0.3 55
2019-09-06 14:00:00 19.6 6 Noroeste 18 Noroeste 0 1020 0.2 69
2019-09-06 13:00:00 19 7 Noroeste 17 Oeste 0 1019.9 0.3 71
2019-09-06 12:00:00 19.3 9 Oeste 16 Oeste 0 1020 0.7 66
2019-09-06 11:00:00 16.7 9 Oeste 15 Sudoeste 0.2 1019.8 0.7 79
2019-09-06 10:00:00 16.3 10 Sudoeste 15 Sudoeste 0 1019.6 0.7 77
2019-09-06 09:00:00 15.8 9 Sudoeste 12 Sudoeste 0 1019.3 0.2 77
2019-09-06 08:00:00 16.1 6 Sudoeste 9 Sur 0 1019.1 -0.4 70
2019-09-06 07:00:00 15.9 2 Sudoeste 9 Sur 0 1018.9 -0.7 72
2019-09-06 06:00:00 16.6 6 Este 20 Nordeste 0 1019.1 -0.7 65
2019-09-06 05:00:00 17.2 13 Nordeste 31 Nordeste 0 1019.5 -0.6 66
2019-09-06 04:00:00 17.3 22 Nordeste 33 Nordeste 0 1019.6 -0.7 66
2019-09-06 03:00:00 17.7 23 Nordeste 35 Nordeste 0 1019.8 -0.6 68
2019-09-06 02:00:00 17.7 18 Nordeste 28 Nordeste 0 1020.1 -0.4 67
2019-09-06 01:00:00 18 22 Nordeste 33 Nordeste 0 1020.3 -0.3 72
2019-09-06 00:00:00 18.2 20 Nordeste 31 Nordeste 0 1020.4 0 70
2019-09-05 23:00:00 18.3 18 Nordeste 24 Nordeste 0 1020.5 0 72
2019-09-05 22:00:00 18.4 16 Nordeste 26 Nordeste 0 1020.6 0.4 68
2019-09-05 21:00:00 18.4 15 Nordeste 25 Nordeste 0 1020.4 0.4 67
2019-09-05 20:00:00 18.6 21 Nordeste 29 Nordeste 0 1020.5 0.5 68
2019-09-05 19:00:00 18.8 22 Nordeste 32 Nordeste 0 1020.2 -0.3 67
2019-09-05 18:00:00 19.4 26 Nordeste 38 Nordeste 0 1020 -0.6 68
2019-09-05 17:00:00 18.6 27 Nordeste 36 Nordeste 0.2 1020 -0.7 72
2019-09-05 16:00:00 19.5 14 Norte 39 Norte 0 1020.5 -0.8 73
2019-09-05 15:00:00 19.7 21 Norte 30 Norte 0 1020.6 -0.2 67
2019-09-05 14:00:00 19.8 9 Noroeste 17 Noroeste 0 1020.7 0.1 68
2019-09-05 13:00:00 16.8 21 Norte 48 Norte 0 1021.3 1 86
2019-09-05 12:00:00 19.1 22 Noroeste 31 Noroeste 0 1020.8 0.6 69
2019-09-05 11:00:00 19.2 15 Oeste 24 Sudoeste 0 1020.6 0.7 73
2019-09-05 10:00:00 19.5 12 Norte 23 Norte 0 1020.3 0.7 63
2019-09-05 09:00:00 18.7 16 Norte 23 Norte 0 1020.2 0.8 65
2019-09-05 08:00:00 18.2 16 Norte 27 Norte 0 1019.9 0.7 72
2019-09-05 07:00:00 18.3 18 Norte 39 Noroeste 0 1019.6 0.3 64
2019-09-05 06:00:00 18.2 26 Norte 44 Norte 0 1019.4 0.6 62
2019-09-05 05:00:00 18.3 24 Norte 38 Norte 0 1019.2 0.6 69
2019-09-05 04:00:00 18.3 20 Norte 42 Norte 0 1019.3 0.5 70
2019-09-05 03:00:00 18.4 30 Norte 47 Norte 0 1018.8 0.4 75
2019-09-05 02:00:00 18.7 31 Norte 44 Norte 0 1018.6 0 80
2019-09-05 01:00:00 17 9 Norte 42 Oeste 0.6 1018.8 0.1 99
2019-09-05 00:00:00 17.5 26 Oeste 39 Oeste 0 1018.4 0.2 92
2019-09-04 23:00:00 19 13 Oeste 25 Oeste 0 1018.6 0.6 78
2019-09-04 22:00:00 19.3 17 Noroeste 26 Noroeste 0 1018.7 0.7 76
2019-09-04 21:00:00 19.4 14 Noroeste 22 Noroeste 0 1018.2 0.6 74
2019-09-04 20:00:00 19.9 13 Noroeste 22 Noroeste 0 1018 0.5 73
2019-09-04 19:00:00 20.4 14 Noroeste 24 Noroeste 0 1018 0.6 68
2019-09-04 18:00:00 21.1 15 Norte 23 Noroeste 0 1017.6 0.3 72
2019-09-04 17:00:00 20.9 17 Noroeste 23 Noroeste 0 1017.5 0.3 72
2019-09-04 16:00:00 21.4 14 Norte 19 Norte 0 1017.4 0 77
2019-09-04 15:00:00 22 13 Noroeste 29 Oeste 0 1017.3 0 75
2019-09-04 14:00:00 21.5 19 Oeste 28 Noroeste 0 1017.2 0.4 77
2019-09-04 13:00:00 21.3 20 Oeste 26 Oeste 0 1017.4 1 70
2019-09-04 12:00:00 20.9 19 Oeste 23 Oeste 0 1017.3 1.2 67
2019-09-04 11:00:00 20 13 Oeste 18 Oeste 0 1016.8 1.4 73
2019-09-04 10:00:00 18.5 9 Sudoeste 17 Sudoeste 0 1016.4 1.6 72
2019-09-04 09:00:00 17.1 8 Sudoeste 16 Sudoeste 0 1016.1 1.5 75
2019-09-04 08:00:00 16.3 8 Sudoeste 11 Sudoeste 0 1015.4 0.9 77
2019-09-04 07:00:00 15.8 6 Sudoeste 11 Oeste 0 1014.8 0 81
2019-09-04 06:00:00 15 11 Sudoeste 15 Sur 0 1014.6 -0.5 85
2019-09-04 05:00:00 15.5 14 Sudeste 16 Sudeste 0 1014.5 -0.9 83
2019-09-04 04:00:00 16.3 4 Sudeste 13 Sudeste 0 1014.8 -0.8 76
2019-09-04 03:00:00 16.4 9 Sudeste 13 Sudeste 0 1015.1 -0.9 74
2019-09-04 02:00:00 16.8 12 Sur 17 Sudeste 0 1015.4 -0.8 73
2019-09-04 01:00:00 16.7 14 Sudeste 16 Sudeste 0 1015.6 -0.5 73
2019-09-04 00:00:00 17.2 12 Sudeste 18 Sudeste 0 1016 0.1 73
2019-09-03 23:00:00 17.8 14 Sudeste 21 Sudeste 0 1016.2 0.3 71
2019-09-03 22:00:00 19 15 Este 23 Este 0 1016.1 0.3 66
2019-09-03 21:00:00 19.5 17 Este 29 Este 0 1015.9 -0.1 64
2019-09-03 20:00:00 20.4 24 Este 36 Este 0 1015.9 -0.6 63
2019-09-03 19:00:00 21 30 Este 37 Este 0 1015.8 -1 58
2019-09-03 18:00:00 21.3 28 Este 36 Este 0 1016 -1 63
2019-09-03 17:00:00 22 21 Este 33 Este 0 1016.5 -0.8 62
2019-09-03 16:00:00 22.2 25 Este 33 Este 0 1016.8 -1.1 65
2019-09-03 15:00:00 22 25 Este 34 Este 0 1017 -1.3 68
2019-09-03 14:00:00 21.7 22 Este 32 Este 0 1017.3 -1 69
2019-09-03 13:00:00 21.6 22 Este 32 Nordeste 0 1017.9 -0.1 71
2019-09-03 12:00:00 21.4 14 Este 22 Este 0 1018.3 0.5 73
2019-09-03 11:00:00 21.6 11 Este 15 Este 0 1018.3 0.8 67
2019-09-03 10:00:00 20.1 11 Sudeste 15 Sudeste 0 1018 0.9 69
2019-09-03 09:00:00 17.7 11 Sur 17 Sur 0 1017.8 0.5 76
2019-09-03 08:00:00 15.3 13 Sur 17 Sur 0 1017.5 -0.2 83
2019-09-03 07:00:00 15.2 14 Sur 17 Sur 0 1017.1 -1.2 83
2019-09-03 06:00:00 15.5 14 Sur 17 Sur 0 1017.3 -1.3 83
2019-09-03 05:00:00 15.8 13 Sur 17 Sur 0 1017.7 -1 82
2019-09-03 04:00:00 16.1 12 Sur 14 Sur 0 1018.3 -0.4 83
2019-09-03 03:00:00 16.2 13 Sur 15 Sur 0 1018.6 -0.2 83
2019-09-03 02:00:00 16.6 12 Sur 13 Sur 0 1018.7 -0.2 82
2019-09-03 01:00:00 16.7 10 Sur 13 Sudeste 0 1018.7 0.2 84
2019-09-03 00:00:00 17 9 Sudeste 13 Sudeste 0 1018.8 0.7 80
2019-09-02 23:00:00 17.4 9 Sudeste 24 Este 0 1018.9 1 80
2019-09-02 22:00:00 18.2 8 Este 19 Este 0 1018.5 0.7 77
2019-09-02 21:00:00 18.9 15 Este 21 Este 0 1018.1 0.4 75
2019-09-02 20:00:00 19.7 17 Este 24 Este 0 1017.9 -0.1 71
2019-09-02 19:00:00 20.4 18 Este 25 Este 0 1017.8 -0.3 68
2019-09-02 18:00:00 21.1 18 Nordeste 24 Nordeste 0 1017.7 -0.8 65
2019-09-02 17:00:00 21.1 11 Nordeste 16 Nordeste 0 1018 -0.6 68
2019-09-02 16:00:00 21 11 Norte 16 Norte 0 1018.1 -0.8 65
2019-09-02 15:00:00 20.7 9 Noroeste 14 Noroeste 0 1018.5 -0.2 70
2019-09-02 14:00:00 20.6 7 Noroeste 12 Noroeste 0 1018.6 -0.1 64
2019-09-02 13:00:00 19.2 4 Oeste 16 Oeste 0 1018.9 0.5 71
2019-09-02 12:00:00 19.4 12 Oeste 15 Oeste 0 1018.7 0.7 71
2019-09-02 11:00:00 20.2 7 Oeste 14 Oeste 0 1018.7 1.1 66
2019-09-02 10:00:00 18.8 10 Oeste 14 Sudoeste 0 1018.4 1.3 77
2019-09-02 09:00:00 17.4 8 Sudoeste 14 Sudoeste 0 1018 1.1 82
2019-09-02 08:00:00 16.4 8 Sudoeste 13 Sudoeste 0 1017.6 0.4 85
2019-09-02 07:00:00 16.8 6 Sudoeste 10 Sudoeste 0 1017.1 -0.4 86
2019-09-02 06:00:00 16.7 6 Sudoeste 14 Sudoeste 0 1016.9 -0.6 84
2019-09-02 05:00:00 16.6 9 Sudoeste 14 Sudoeste 0 1017.2 -0.5 87
2019-09-02 04:00:00 16.3 10 Sudoeste 15 Sudoeste 0 1017.5 -0.1 89
2019-09-02 03:00:00 16.2 9 Sudoeste 18 Sudoeste 0 1017.5 -0.1 91
2019-09-02 02:00:00 16.4 11 Sudoeste 19 Oeste 0 1017.7 0.1 91
2019-09-02 01:00:00 17 6 Sudoeste 13 Sur 0 1017.6 0.7 88
2019-09-02 00:00:00 16.8 6 Sur 15 Sur 0 1017.6 1.4 85
2019-09-01 23:00:00 17.1 8 Sudoeste 14 Nordeste 0 1017.6 2.1 86
2019-09-01 22:00:00 18.9 14 Nordeste 26 Nordeste 0 1016.9 1.9 71
2019-09-01 21:00:00 18.9 22 Nordeste 31 Nordeste 0 1016.2 1.9 68
2019-09-01 20:00:00 17.4 13 Nordeste 36 Nordeste 0.2 1015.5 1.7 81
2019-09-01 19:00:00 17.2 25 Nordeste 37 Norte 0 1015 1.7 93
2019-09-01 18:00:00 17.5 25 Nordeste 38 Nordeste 0.4 1014.3 1.4 97
2019-09-01 17:00:00 17.9 31 Nordeste 47 Norte 0 1013.8 1.1 92
2019-09-01 16:00:00 18.6 32 Nordeste 48 Nordeste 0 1013.3 0.3 91
2019-09-01 15:00:00 18.9 40 Nordeste 50 Nordeste 0 1012.9 -0.1 90
2019-09-01 14:00:00 19 42 Norte 52 Nordeste 1.6 1012.7 -0.1 94
2019-09-01 13:00:00 21.3 8 Sudoeste 14 Sur 0 1013 0.9 85
2019-09-01 12:00:00 19.6 10 Sudoeste 15 Sudoeste 0 1013 1.3 91
2019-09-01 11:00:00 18.8 10 Sudoeste 20 Sudoeste 0 1012.8 1.6 94
2019-09-01 10:00:00 18.3 11 Sudoeste 20 Sudoeste 0.4 1012.1 1.2 95
2019-09-01 09:00:00 18.4 12 Sudoeste 18 Sudoeste 0.2 1011.7 1.1 95
2019-09-01 08:00:00 18.8 6 Sudoeste 16 Oeste 0 1011.2 0 93
2019-09-01 07:00:00 19 9 Sudoeste 15 Oeste 0 1010.9 -0.5 93
2019-09-01 06:00:00 19.5 8 Sudoeste 13 Oeste 0 1010.6 -1 93
2019-09-01 05:00:00 19.7 8 Oeste 11 Oeste 0 1011.2 -0.6 92
2019-09-01 04:00:00 19.8 8 Oeste 10 Oeste 0 1011.4 -0.7 92
2019-09-01 03:00:00 19.7 8 Oeste 12 Oeste 0 1011.6 -0.8 93
2019-09-01 02:00:00 19.9 7 Sudoeste 14 Sudoeste 0 1011.8 -0.7 91
2019-09-01 01:00:00 20 8 Sudoeste 12 Oeste 0 1012.1 -0.2 94
2019-09-01 00:00:00 20.2 8 Oeste 12 Oeste 0 1012.4 0.6 93
2019-08-31 23:00:00 20.1 9 Oeste 12 Oeste 0 1012.5 1.3 94
2019-08-31 22:00:00 20.1 9 Oeste 12 Oeste 0 1012.3 1 94
2019-08-31 21:00:00 20.5 7 Oeste 10 Oeste 0 1011.8 0.8 94
2019-08-31 20:00:00 20.9 5 Oeste 10 Oeste 0 1011.2 0.2 92
2019-08-31 19:00:00 21 8 Oeste 17 Noroeste 0 1011.3 0.1 92
2019-08-31 18:00:00 21.5 7 Noroeste 10 Noroeste 0 1011 -0.6 88
2019-08-31 17:00:00 22 4 Nordeste 6 Este 0 1011 -0.7 84
2019-08-31 16:00:00 21.5 5 Nordeste 12 Noroeste 0 1011.2 -0.6 88
2019-08-31 15:00:00 20.9 8 Noroeste 12 Noroeste 0 1011.6 -0.1 92
2019-08-31 14:00:00 20.3 7 Oeste 11 Noroeste 0 1011.7 0.5 94
2019-08-31 13:00:00 20.3 7 Noroeste 10 Noroeste 0.2 1011.8 1.2 97
2019-08-31 12:00:00 19.8 8 Noroeste 18 Oeste 0.2 1011.7 1.4 97
2019-08-31 11:00:00 20.6 9 Oeste 14 Oeste 0 1011.2 1.5 95
2019-08-31 10:00:00 20.9 3 Noroeste 5 Noroeste 0 1010.6 1.5 91
2019-08-31 09:00:00 20.8 4 Este 8 Nordeste 0 1010.3 1.2 92
2019-08-31 08:00:00 20.5 6 Nordeste 10 Este 0 1009.7 0 94
2019-08-31 07:00:00 20.4 6 Este 13 Este 0 1009.1 -0.7 93
2019-08-31 06:00:00 20.6 9 Sudeste 12 Este 0 1009.1 -1.3 93
2019-08-31 05:00:00 20.6 8 Este 12 Este 0 1009.7 -1.3 92
2019-08-31 04:00:00 20.6 9 Este 13 Nordeste 0 1009.8 -1.7 92
2019-08-31 03:00:00 20.6 10 Este 13 Este 0 1010.4 -1.4 92
2019-08-31 02:00:00 20.6 9 Este 13 Este 0 1011 -1.3 90
2019-08-31 01:00:00 20.6 6 Este 12 Este 0 1011.5 -0.7 91
2019-08-31 00:00:00 20.7 8 Este 13 Nordeste 0 1011.8 -0.4 91
2019-08-30 23:00:00 20.8 10 Este 13 Este 0 1012.3 0.1 90
2019-08-30 22:00:00 20.9 10 Nordeste 12 Nordeste 0 1012.2 -0.3 91
2019-08-30 21:00:00 21 9 Nordeste 13 Este 0 1012.2 -0.4 91
2019-08-30 20:00:00 21.5 8 Este 14 Este 0 1012.2 -0.6 87
2019-08-30 19:00:00 21.9 11 Nordeste 19 Nordeste 0 1012.5 -0.4 86
2019-08-30 18:00:00 22.4 16 Nordeste 23 Nordeste 0 1012.6 -0.5 83
2019-08-30 17:00:00 23 19 Nordeste 26 Nordeste 0 1012.8 -0.6 81
2019-08-30 16:00:00 23.4 20 Nordeste 27 Nordeste 0 1012.9 -1 81
2019-08-30 15:00:00 23.6 21 Nordeste 26 Nordeste 0 1013.1 -0.9 80
2019-08-30 14:00:00 24.1 19 Nordeste 26 Nordeste 0 1013.4 -0.8 79
2019-08-30 13:00:00 23.1 20 Nordeste 26 Nordeste 0 1013.9 -0.3 83
2019-08-30 12:00:00 23.4 18 Este 27 Nordeste 0 1014 -0.2 80
2019-08-30 11:00:00 23.2 18 Este 25 Este 0 1014.2 0 80
2019-08-30 10:00:00 22.4 12 Este 16 Este 0 1014.2 0 84
2019-08-30 09:00:00 21.7 9 Este 26 Este 0 1014.2 0.1 84
2019-08-30 08:00:00 20.6 17 Este 25 Este 0 1014.2 -0.3 89
2019-08-30 07:00:00 20.7 15 Este 20 Este 0 1014.2 -0.5 89
2019-08-30 06:00:00 20.7 15 Este 23 Este 0 1014.1 -0.9 87
2019-08-30 05:00:00 20.7 17 Este 22 Este 0 1014.5 -1.1 90
2019-08-30 04:00:00 20.7 12 Este 18 Este 0 1014.7 -1 88
2019-08-30 03:00:00 20.7 14 Este 19 Este 0 1015 -0.7 89
2019-08-30 02:00:00 20.7 12 Este 21 Este 0 1015.6 0.1 90
2019-08-30 01:00:00 20.7 14 Este 21 Este 0 1015.7 0.4 90
2019-08-30 00:00:00 20 8 Este 10 Este 0 1015.7 0.8 90
2019-08-29 23:00:00 20.1 9 Sudeste 14 Sudeste 0 1015.5 1 88
2019-08-29 22:00:00 20.4 11 Sudeste 19 Este 0 1015.3 0.9 87
2019-08-29 21:00:00 20.7 14 Este 22 Este 0 1014.9 0.9 85
2019-08-29 20:00:00 21.4 19 Este 27 Este 0 1014.5 0.7 82
2019-08-29 19:00:00 21.9 22 Este 27 Este 0 1014.4 0.9 79
2019-08-29 18:00:00 22.1 24 Este 33 Este 0 1014 0.4 79
2019-08-29 17:00:00 22.3 28 Este 37 Este 0 1013.8 0.3 77
2019-08-29 16:00:00 23 29 Este 39 Este 0 1013.5 0.1 77
2019-08-29 15:00:00 24.1 26 Este 41 Este 0 1013.6 0.3 75
2019-08-29 14:00:00 24.3 26 Este 36 Este 0 1013.5 0.4 74
2019-08-29 13:00:00 24.1 24 Este 36 Este 0 1013.4 0.5 72
2019-08-29 12:00:00 24 22 Este 33 Este 0 1013.3 0.6 75
2019-08-29 11:00:00 23.7 14 Este 23 Este 0 1013.1 0.7 76
2019-08-29 10:00:00 22.5 12 Este 15 Este 0 1012.9 0.5 87
2019-08-29 09:00:00 20.8 9 Este 13 Este 0 1012.7 0.4 94
2019-08-29 08:00:00 20.1 8 Sudeste 10 Sudeste 0 1012.4 -0.1 94
2019-08-29 07:00:00 20.6 3 Sudeste 5 Oeste 0 1012.4 -0.5 95
2019-08-29 06:00:00 20.6 4 Oeste 6 Oeste 0 1012.3 -0.7 94
2019-08-29 05:00:00 20.8 3 Sudoeste 6 Sudoeste 0 1012.5 -0.6 95
2019-08-29 04:00:00 20.8 4 Oeste 8 Oeste 0 1012.9 -0.2 96
2019-08-29 03:00:00 20.6 6 Oeste 8 Oeste 0 1013 0 95
2019-08-29 02:00:00 20.5 7 Oeste 10 Oeste 0 1013.1 0.2 95
2019-08-29 01:00:00 20.6 8 Oeste 12 Oeste 0 1013.1 0.5 95
2019-08-29 00:00:00 20.8 8 Oeste 14 Oeste 0 1013 0.9 95
2019-08-28 23:00:00 21.3 8 Sudeste 10 Sudeste 0 1012.9 1.1 93
2019-08-28 22:00:00 21.4 6 Este 10 Este 0 1012.6 0.8 93
2019-08-28 21:00:00 21.5 5 Este 10 Nordeste 0 1012.1 0.4 93
2019-08-28 20:00:00 21.9 6 Este 15 Este 0 1011.8 0.2 91
2019-08-28 19:00:00 22.2 11 Este 16 Este 0 1011.8 0.3 88
2019-08-28 18:00:00 22.7 12 Este 20 Nordeste 0 1011.7 0.4 86
2019-08-28 17:00:00 22.9 17 Nordeste 21 Nordeste 0 1011.6 0.4 84
2019-08-28 16:00:00 22.5 14 Nordeste 22 Nordeste 0 1011.5 0.3 87
2019-08-28 15:00:00 23.2 17 Nordeste 22 Nordeste 0 1011.3 0 84
2019-08-28 14:00:00 24.3 15 Nordeste 20 Nordeste 0 1011.2 0.2 82
2019-08-28 13:00:00 23.1 6 Norte 8 Norte 0 1011.2 0.6 86
2019-08-28 12:00:00 22.2 5 Norte 7 Norte 0 1011.3 0.7 88
2019-08-28 11:00:00 21.8 4 Norte 9 Este 0 1011 0.3 88
2019-08-28 10:00:00 21.3 5 Este 10 Sudeste 0 1010.6 0 91
2019-08-28 09:00:00 20.3 8 Sudeste 13 Sudeste 0 1010.6 -0.1 95
2019-08-28 08:00:00 18.8 10 Sudeste 12 Sudeste 0 1010.7 0 98
2019-08-28 07:00:00 19.1 7 Sudeste 8 Sudeste 0 1010.6 0 96
2019-08-28 06:00:00 19.5 4 Este 6 Este 0 1010.7 -0.1 96
2019-08-28 05:00:00 19.6 4 Este 8 Sudeste 0 1010.7 -0.6 95
2019-08-28 04:00:00 19.4 6 Sudeste 9 Sudeste 0 1010.6 -0.9 95
2019-08-28 03:00:00 19.6 5 Sudeste 11 Sudeste 0 1010.8 -1 95
2019-08-28 02:00:00 19.9 7 Este 10 Este 0 1011.3 -0.5 94
2019-08-28 01:00:00 20.5 5 Este 8 Nordeste 0 1011.5 -0.1 92
2019-08-28 00:00:00 20.9 4 Nordeste 9 Nordeste 0 1011.8 1 91
2019-08-27 23:00:00 21 8 Nordeste 10 Nordeste 0 1011.8 1.1 91
2019-08-27 22:00:00 20.9 6 Norte 8 Nordeste 0 1011.6 0.9 90
2019-08-27 21:00:00 21.1 4 Nordeste 10 Norte 0 1010.8 0.4 87
2019-08-27 20:00:00 21.7 8 Norte 14 Noroeste 0 1010.7 0.3 85
2019-08-27 19:00:00 22.4 9 Norte 13 Norte 0 1010.7 0.2 83
2019-08-27 18:00:00 22.6 10 Norte 15 Norte 0 1010.4 -0.3 84
2019-08-27 17:00:00 23.1 12 Nordeste 17 Nordeste 0 1010.4 -0.1 83
2019-08-27 16:00:00 22.9 12 Norte 16 Norte 0 1010.5 -0.3 86
2019-08-27 15:00:00 23.3 10 Nordeste 15 Norte 0 1010.7 -0.1 85
2019-08-27 14:00:00 22.6 10 Noroeste 18 Noroeste 0 1010.5 -0.2 87
2019-08-27 13:00:00 22.3 10 Noroeste 15 Norte 0 1010.8 0.6 84
2019-08-27 12:00:00 22.1 6 Norte 8 Norte 0 1010.8 1.3 84
2019-08-27 11:00:00 21.5 4 Oeste 9 Sur 0 1010.7 1.6 84
2019-08-27 10:00:00 21 5 Sudoeste 13 Sudoeste 0 1010.2 1.4 84
2019-08-27 09:00:00 20.1 8 Sudoeste 13 Sudoeste 0 1009.5 0.8 86
2019-08-27 08:00:00 19.2 10 Sudoeste 14 Sur 0 1009.1 0 88
2019-08-27 07:00:00 19.1 11 Sudoeste 15 Sudoeste 0 1008.8 -0.1 92
2019-08-27 06:00:00 19.3 10 Sudoeste 18 Sur 0 1008.7 0.1 93
2019-08-27 05:00:00 19 13 Sur 19 Sur 0 1009.1 -0.1 95
2019-08-27 04:00:00 19.1 12 Sudoeste 15 Oeste 0 1008.9 -0.3 96
2019-08-27 03:00:00 18.8 13 Oeste 19 Sudoeste 0 1008.6 -0.4 94
2019-08-27 02:00:00 19.6 8 Sudoeste 13 Sudoeste 0 1009.2 -0.1 94
2019-08-27 01:00:00 19.6 3 Sur 14 Oeste 0 1009.2 -0.2 95
2019-08-27 00:00:00 19.9 10 Oeste 20 Sur 0 1009 0.5 93
2019-08-26 23:00:00 19.7 16 Sudeste 26 Sudeste 0 1009.3 1.1 96
2019-08-26 22:00:00 20.1 12 Sudeste 17 Sudeste 0 1009.4 1.5 96
2019-08-26 21:00:00 20.6 6 Oeste 19 Sudeste 0 1008.5 -0.6 93
2019-08-26 20:00:00 20.5 14 Sur 26 Sur 0.2 1008.2 0.1 96
2019-08-26 19:00:00 20.8 15 Sudoeste 37 Noroeste 2 1007.9 0.1 95
2019-08-26 18:00:00 21.3 8 Nordeste 22 Este 0.2 1009.1 0.8 87
2019-08-26 17:00:00 22.7 11 Noroeste 14 Noroeste 0 1008.1 0.8 88
2019-08-26 16:00:00 22.8 10 Norte 16 Noroeste 0 1007.8 -1 87
2019-08-26 15:00:00 23.2 9 Norte 24 Sudeste 0 1008.3 -0.7 82
2019-08-26 14:00:00 21.9 9 Norte 14 Norte 0 1007.3 -1.7 88
2019-08-26 13:00:00 20.9 6 Noroeste 14 Norte 0 1008.8 0.1 87
2019-08-26 12:00:00 21.4 7 Noroeste 12 Oeste 0 1009 0.4 85
2019-08-26 11:00:00 21.3 4 Sudoeste 14 Sudeste 0 1009 0.6 84
2019-08-26 10:00:00 21.6 9 Sudeste 17 Sudeste 0 1008.7 0.4 85
2019-08-26 09:00:00 20.6 10 Este 19 Sudeste 0 1008.6 -0.5 92
2019-08-26 08:00:00 19.6 12 Sudeste 29 Este 0 1008.4 -1.3 93
2019-08-26 07:00:00 19.1 17 Este 23 Este 0 1008.3 -1.6 94
2019-08-26 06:00:00 18.7 8 Sudeste 13 Sudeste 0 1009.1 -1.1 93
2019-08-26 05:00:00 19.3 8 Sudeste 14 Sudeste 0 1009.7 -0.8 91
2019-08-26 04:00:00 19.9 10 Sudeste 20 Este 0 1009.9 -1 91
2019-08-26 03:00:00 19.7 9 Este 19 Este 0 1010.2 -1 93
2019-08-26 02:00:00 19.4 12 Este 17 Este 0 1010.5 -0.7 92
2019-08-26 01:00:00 19.3 5 Este 9 Sudeste 0 1010.9 -1.2 90
2019-08-26 00:00:00 19.3 8 Sudeste 15 Este 0 1011.2 -0.6 91
2019-08-25 23:00:00 19.3 10 Este 17 Sur 0 1011.2 -1.1 92
2019-08-25 22:00:00 19.6 8 Sudeste 17 Este 0.4 1012.1 0.1 88
2019-08-25 21:00:00 20.3 9 Nordeste 21 Este 0 1011.8 0 85
2019-08-25 20:00:00 20.7 4 Sudoeste 18 Nordeste 0 1012.3 0.3 80
2019-08-25 19:00:00 20.9 12 Nordeste 18 Norte 0 1012 0.1 81
2019-08-25 18:00:00 21.1 14 Norte 17 Norte 0 1011.8 -0.2 78
2019-08-25 17:00:00 21.3 13 Nordeste 18 Nordeste 0 1012 0.1 80
2019-08-25 16:00:00 22 11 Nordeste 14 Nordeste 0 1011.9 -0.1 78
2019-08-25 15:00:00 22 11 Nordeste 19 Nordeste 0 1012 -0.3 77
2019-08-25 14:00:00 21.2 16 Nordeste 21 Nordeste 0 1011.9 -0.2 79
2019-08-25 13:00:00 21.6 15 Nordeste 21 Nordeste 0 1012 0.1 79
2019-08-25 12:00:00 21 14 Nordeste 18 Nordeste 0 1012.3 1.1 80
2019-08-25 11:00:00 20.7 12 Nordeste 16 Norte 0 1012.1 1.1 80
2019-08-25 10:00:00 20.5 8 Nordeste 11 Nordeste 0 1011.9 0.7 81
2019-08-25 09:00:00 19.9 4 Sudeste 10 Este 0 1011.2 -0.3 87
2019-08-25 08:00:00 19.9 6 Nordeste 9 Nordeste 0 1011 -0.5 87
2019-08-25 07:00:00 19.7 0 Calma 6 Sudeste 0 1011.2 -0.4 86
2019-08-25 06:00:00 19.8 3 Sudeste 5 Sur 0 1011.5 -0.3 86
2019-08-25 05:00:00 19.9 4 Sudoeste 6 Sudoeste 0 1011.5 -0.7 84
2019-08-25 04:00:00 19.8 4 Sudoeste 6 Sudoeste 0 1011.6 -0.9 83
2019-08-25 03:00:00 19.7 5 Sudoeste 9 Sudoeste 0 1011.8 -0.8 85
2019-08-25 02:00:00 19.9 5 Sudoeste 10 Oeste 0 1012.2 -0.5 84
2019-08-25 01:00:00 20 6 Sudoeste 12 Sudoeste 0 1012.5 0 86
2019-08-25 00:00:00 20 6 Sudoeste 12 Sudoeste 0 1012.6 0.4 84
2019-08-24 23:00:00 20 8 Sudoeste 13 Oeste 0 1012.7 0.6 85
2019-08-24 22:00:00 20.1 8 Sudoeste 19 Oeste 0 1012.5 0.3 84
2019-08-24 21:00:00 20.4 13 Oeste 22 Noroeste 0 1012.2 0 81
2019-08-24 20:00:00 20.8 14 Noroeste 25 Oeste 0 1012.1 0 83
2019-08-24 19:00:00 21 17 Noroeste 29 Noroeste 0 1012.2 0.2 82
2019-08-24 18:00:00 21 19 Noroeste 30 Noroeste 0 1012.2 0.3 83
2019-08-24 17:00:00 21.4 20 Noroeste 28 Noroeste 0 1012.1 0.3 82
2019-08-24 16:00:00 22.3 19 Noroeste 28 Noroeste 0 1012 0.4 80
2019-08-24 15:00:00 22.4 17 Noroeste 31 Noroeste 0 1011.9 0.6 77
2019-08-24 14:00:00 22.9 19 Noroeste 32 Oeste 0 1011.8 0.8 80
2019-08-24 13:00:00 22.5 22 Oeste 35 Oeste 0 1011.6 0.9 84
2019-08-24 12:00:00 22.1 26 Oeste 34 Oeste 0 1011.3 1 84
2019-08-24 11:00:00 21.8 26 Oeste 37 Oeste 0 1011 1.2 85
2019-08-24 10:00:00 21.2 25 Oeste 33 Oeste 0 1010.7 1.3 88
2019-08-24 09:00:00 20.3 20 Oeste 29 Oeste 0 1010.3 1.1 88
2019-08-24 08:00:00 20 13 Sudoeste 22 Sudoeste 0 1009.8 0.4 81
2019-08-24 07:00:00 20.2 12 Sudoeste 21 Sudoeste 0 1009.4 0.4 79
2019-08-24 06:00:00 20 16 Sudoeste 25 Oeste 0 1009.2 0 83
2019-08-24 05:00:00 19.6 17 Oeste 23 Oeste 0 1009.4 -0.1 80
2019-08-24 04:00:00 20.8 2 Oeste 8 Sudoeste 0 1009 -0.6 67
2019-08-24 03:00:00 20.9 2 Norte 7 Sudeste 0 1009.2 -0.6 72
2019-08-24 02:00:00 21.6 4 Oeste 14 Sudoeste 0 1009.5 -0.3 70
2019-08-24 01:00:00 20.7 8 Sur 11 Sur 0 1009.6 0.1 92
2019-08-24 00:00:00 20.6 3 Sudeste 8 Este 0 1009.8 0.4 88
2019-08-23 23:00:00 20.4 4 Este 13 Este 0 1009.8 0.4 90
2019-08-23 22:00:00 21 11 Este 16 Este 0 1009.5 -0.1 91
2019-08-23 21:00:00 21.4 9 Este 14 Este 0 1009.4 -0.5 91
2019-08-23 20:00:00 22.3 9 Este 17 Este 0 1009.4 -0.5 87
2019-08-23 19:00:00 23.2 11 Este 19 Nordeste 0 1009.6 -0.7 82
2019-08-23 18:00:00 23.7 9 Este 20 Este 0 1009.9 -0.6 80
2019-08-23 17:00:00 24 12 Este 17 Nordeste 0 1009.9 -1 79
2019-08-23 16:00:00 24.3 11 Este 17 Este 0 1010.3 -0.9 76
2019-08-23 15:00:00 24 12 Este 17 Este 0 1010.5 -1 69
2019-08-23 14:00:00 23.3 13 Este 21 Este 0 1010.9 -0.9 71
2019-08-23 13:00:00 22.8 15 Este 19 Este 0 1011.2 -0.7 64
2019-08-23 12:00:00 21.8 7 Este 12 Este 0 1011.5 -0.6 66
2019-08-23 11:00:00 21.1 8 Este 11 Este 0 1011.8 -0.2 61
2019-08-23 10:00:00 19.8 4 Nordeste 5 Nordeste 0 1011.9 0 74
2019-08-23 09:00:00 18.9 2 Oeste 8 Sur 0 1012.1 -0.2 67
2019-08-23 08:00:00 16.9 10 Sur 13 Sur 0 1012 -0.8 81
2019-08-23 07:00:00 17 10 Sur 13 Sur 0 1011.9 -1 80
2019-08-23 06:00:00 17.2 6 Sur 12 Sur 0 1012.3 -0.8 81
2019-08-23 05:00:00 18.2 2 Nordeste 18 Sudeste 0 1012.8 -0.8 70
2019-08-23 04:00:00 18.9 12 Sudeste 26 Este 0 1012.9 -0.9 68
2019-08-23 03:00:00 19.4 17 Este 25 Este 0 1013.1 -1.4 66
2019-08-23 02:00:00 19.2 13 Este 26 Este 0 1013.6 -1 65
2019-08-23 01:00:00 19.4 19 Este 28 Este 0 1013.8 -0.7 73
2019-08-23 00:00:00 19.1 16 Este 24 Este 0 1014.5 0.2 78